sensor_id;sensor_type;location;lat;lon;timestamp;pressure;altitude;pressure_sealevel;temperature;humidity
24031;BME280;12240;51.142;22.486;2023-01-28T00:00:04;99754.72;;;-1.53;100.00
24031;BME280;12240;51.142;22.486;2023-01-28T00:02:34;99812.53;;;-1.22;100.00
24031;BME280;12240;51.142;22.486;2023-01-28T00:05:03;99810.78;;;-1.21;100.00
24031;BME280;12240;51.142;22.486;2023-01-28T00:07:32;99805.69;;;-1.24;100.00
24031;BME280;12240;51.142;22.486;2023-01-28T00:10:00;99793.75;;;-1.30;100.00
24031;BME280;12240;51.142;22.486;2023-01-28T00:12:31;99745.53;;;-1.61;100.00
24031;BME280;12240;51.142;22.486;2023-01-28T00:14:59;99742.59;;;-1.72;100.00
24031;BME280;12240;51.142;22.486;2023-01-28T00:17:27;99762.44;;;-1.50;100.00
24031;BME280;12240;51.142;22.486;2023-01-28T00:19:56;99826.38;;;-1.20;100.00
24031;BME280;12240;51.142;22.486;2023-01-28T00:22:25;99787.16;;;-1.38;100.00
24031;BME280;12240;51.142;22.486;2023-01-28T00:24:53;99770.06;;;-1.45;100.00
24031;BME280;12240;51.142;22.486;2023-01-28T00:27:21;99816.69;;;-1.17;100.00
24031;BME280;12240;51.142;22.486;2023-01-28T00:29:50;99817.50;;;-1.15;100.00
24031;BME280;12240;51.142;22.486;2023-01-28T00:32:18;99798.03;;;-1.29;100.00
24031;BME280;12240;51.142;22.486;2023-01-28T00:34:46;99763.03;;;-1.43;100.00
24031;BME280;12240;51.142;22.486;2023-01-28T00:37:16;99791.91;;;-1.28;100.00
24031;BME280;12240;51.142;22.486;2023-01-28T00:39:45;99790.13;;;-1.27;100.00
24031;BME280;12240;51.142;22.486;2023-01-28T00:42:13;99799.88;;;-1.31;100.00
24031;BME280;12240;51.142;22.486;2023-01-28T00:44:41;99786.75;;;-1.29;100.00
24031;BME280;12240;51.142;22.486;2023-01-28T00:47:09;99790.97;;;-1.27;100.00
24031;BME280;12240;51.142;22.486;2023-01-28T00:49:37;99784.06;;;-1.28;100.00
24031;BME280;12240;51.142;22.486;2023-01-28T00:52:05;99790.06;;;-1.26;100.00
24031;BME280;12240;51.142;22.486;2023-01-28T00:54:33;99793.59;;;-1.27;100.00
24031;BME280;12240;51.142;22.486;2023-01-28T00:57:03;99755.72;;;-1.55;100.00
24031;BME280;12240;51.142;22.486;2023-01-28T00:59:31;99783.16;;;-1.27;100.00
24031;BME280;12240;51.142;22.486;2023-01-28T01:01:59;99676.78;;;-1.99;100.00
24031;BME280;12240;51.142;22.486;2023-01-28T01:04:40;99748.63;;;-1.52;100.00
24031;BME280;12240;51.142;22.486;2023-01-28T01:07:08;99740.06;;;-1.55;100.00
24031;BME280;12240;51.142;22.486;2023-01-28T01:09:36;99786.63;;;-1.26;100.00
24031;BME280;12240;51.142;22.486;2023-01-28T01:12:06;99791.06;;;-1.28;100.00
24031;BME280;12240;51.142;22.486;2023-01-28T01:14:36;99791.91;;;-1.28;100.00
24031;BME280;12240;51.142;22.486;2023-01-28T01:17:04;99786.16;;;-1.36;100.00
24031;BME280;12240;51.142;22.486;2023-01-28T01:19:32;99729.31;;;-1.68;100.00
24031;BME280;12240;51.142;22.486;2023-01-28T01:22:00;99759.94;;;-1.53;100.00
24031;BME280;12240;51.142;22.486;2023-01-28T01:24:28;99733.56;;;-1.65;100.00
24031;BME280;12240;51.142;22.486;2023-01-28T01:27:01;99755.53;;;-1.51;100.00
24031;BME280;12240;51.142;22.486;2023-01-28T01:29:29;99793.59;;;-1.27;100.00
24031;BME280;12240;51.142;22.486;2023-01-28T01:31:57;99738.50;;;-1.59;100.00
24031;BME280;12240;51.142;22.486;2023-01-28T01:34:25;99727.34;;;-1.63;100.00
24031;BME280;12240;51.142;22.486;2023-01-28T01:36:53;99789.72;;;-1.37;100.00
24031;BME280;12240;51.142;22.486;2023-01-28T01:39:21;99765.81;;;-1.48;100.00
24031;BME280;12240;51.142;22.486;2023-01-28T01:41:49;99722.53;;;-1.72;100.00
24031;BME280;12240;51.142;22.486;2023-01-28T01:45:02;99781.53;;;-1.29;100.00
24031;BME280;12240;51.142;22.486;2023-01-28T01:52:56;99793.81;;;-1.31;100.00
24031;BME280;12240;51.142;22.486;2023-01-28T01:55:30;99775.78;;;-1.37;100.00
24031;BME280;12240;51.142;22.486;2023-01-28T01:58:03;99723.44;;;-1.73;100.00
24031;BME280;12240;51.142;22.486;2023-01-28T02:00:33;99792.16;;;-1.34;100.00
24031;BME280;12240;51.142;22.486;2023-01-28T02:03:02;99793.81;;;-1.31;100.00
24031;BME280;12240;51.142;22.486;2023-01-28T02:05:30;99776.78;;;-1.40;100.00
24031;BME280;12240;51.142;22.486;2023-01-28T02:08:01;99754.03;;;-1.56;100.00
24031;BME280;12240;51.142;22.486;2023-01-28T02:11:03;99780.94;;;-1.36;100.00
24031;BME280;12240;51.142;22.486;2023-01-28T02:13:46;99731.84;;;-1.66;100.00
24031;BME280;12240;51.142;22.486;2023-01-28T02:16:15;99717.28;;;-1.72;100.00
24031;BME280;12240;51.142;22.486;2023-01-28T02:18:44;99762.94;;;-1.42;100.00
24031;BME280;12240;51.142;22.486;2023-01-28T02:25:15;99776.25;;;-1.48;100.00
24031;BME280;12240;51.142;22.486;2023-01-28T02:39:06;99759.28;;;-1.38;100.00
24031;BME280;12240;51.142;22.486;2023-01-28T02:41:51;99759.56;;;-1.44;100.00
24031;BME280;12240;51.142;22.486;2023-01-28T02:44:23;99765.19;;;-1.34;100.00
24031;BME280;12240;51.142;22.486;2023-01-28T02:46:53;99720.44;;;-1.64;100.00
24031;BME280;12240;51.142;22.486;2023-01-28T02:49:48;99770.78;;;-1.42;100.00
24031;BME280;12240;51.142;22.486;2023-01-28T02:56:00;99770.72;;;-1.40;100.00
24031;BME280;12240;51.142;22.486;2023-01-28T03:01:39;99720.44;;;-1.64;100.00
24031;BME280;12240;51.142;22.486;2023-01-28T03:04:18;99753.63;;;-1.47;100.00
24031;BME280;12240;51.142;22.486;2023-01-28T03:06:54;99757.88;;;-1.45;100.00
24031;BME280;12240;51.142;22.486;2023-01-28T03:09:25;99724.16;;;-1.69;100.00
24031;BME280;12240;51.142;22.486;2023-01-28T03:12:05;99756.31;;;-1.49;100.00
24031;BME280;12240;51.142;22.486;2023-01-28T03:15:02;99766.59;;;-1.46;100.00
24031;BME280;12240;51.142;22.486;2023-01-28T03:24:27;99748.78;;;-1.56;100.00
24031;BME280;12240;51.142;22.486;2023-01-28T03:27:27;99765.72;;;-1.45;100.00
24031;BME280;12240;51.142;22.486;2023-01-28T03:30:40;99714.75;;;-1.73;100.00
24031;BME280;12240;51.142;22.486;2023-01-28T03:33:41;99702.19;;;-1.84;100.00
24031;BME280;12240;51.142;22.486;2023-01-28T03:36:30;99749.28;;;-1.67;100.00
24031;BME280;12240;51.142;22.486;2023-01-28T03:39:37;99762.56;;;-1.53;100.00
24031;BME280;12240;51.142;22.486;2023-01-28T03:42:13;99766.88;;;-1.52;100.00
24031;BME280;12240;51.142;22.486;2023-01-28T03:44:59;99691.09;;;-1.89;100.00
24031;BME280;12240;51.142;22.486;2023-01-28T03:47:32;99779.66;;;-1.46;100.00
24031;BME280;12240;51.142;22.486;2023-01-28T03:50:03;99758.34;;;-1.55;100.00
24031;BME280;12240;51.142;22.486;2023-01-28T03:52:45;99759.88;;;-1.51;100.00
24031;BME280;12240;51.142;22.486;2023-01-28T03:55:27;99768.31;;;-1.45;100.00
24031;BME280;12240;51.142;22.486;2023-01-28T03:57:55;99762.38;;;-1.48;100.00
24031;BME280;12240;51.142;22.486;2023-01-28T04:00:23;99751.22;;;-1.52;100.00
24031;BME280;12240;51.142;22.486;2023-01-28T04:02:53;99762.31;;;-1.47;100.00
24031;BME280;12240;51.142;22.486;2023-01-28T04:05:21;99747.81;;;-1.54;100.00
24031;BME280;12240;51.142;22.486;2023-01-28T04:07:54;99706.28;;;-1.78;100.00
24031;BME280;12240;51.142;22.486;2023-01-28T04:11:01;99705.56;;;-1.82;100.00
24031;BME280;12240;51.142;22.486;2023-01-28T04:13:46;99725.84;;;-1.68;100.00
24031;BME280;12240;51.142;22.486;2023-01-28T04:16:18;99762.94;;;-1.42;100.00
24031;BME280;12240;51.142;22.486;2023-01-28T04:18:47;99765.81;;;-1.48;100.00
24031;BME280;12240;51.142;22.486;2023-01-28T04:21:16;99763.91;;;-1.44;100.00
24031;BME280;12240;51.142;22.486;2023-01-28T04:23:54;99765.00;;;-1.48;100.00
24031;BME280;12240;51.142;22.486;2023-01-28T04:26:22;99765.31;;;-1.56;100.00
24031;BME280;12240;51.142;22.486;2023-01-28T04:28:50;99770.84;;;-1.43;100.00
24031;BME280;12240;51.142;22.486;2023-01-28T04:31:18;99767.00;;;-1.55;100.00
24031;BME280;12240;51.142;22.486;2023-01-28T04:34:19;99756.56;;;-1.55;100.00
24031;BME280;12240;51.142;22.486;2023-01-28T04:37:14;99706.13;;;-1.94;100.00
24031;BME280;12240;51.142;22.486;2023-01-28T04:39:42;99732.75;;;-1.86;100.00
24031;BME280;12240;51.142;22.486;2023-01-28T04:42:20;99713.94;;;-1.94;100.00
24031;BME280;12240;51.142;22.486;2023-01-28T04:45:03;99765.00;;;-1.68;100.00
24031;BME280;12240;51.142;22.486;2023-01-28T04:47:51;99720.81;;;-1.91;100.00
24031;BME280;12240;51.142;22.486;2023-01-28T04:50:43;99713.06;;;-1.93;100.00
24031;BME280;12240;51.142;22.486;2023-01-28T04:53:34;99780.19;;;-1.58;100.00
24031;BME280;12240;51.142;22.486;2023-01-28T04:56:07;99782.88;;;-1.59;100.00
24031;BME280;12240;51.142;22.486;2023-01-28T04:58:36;99707.03;;;-1.95;100.00
24031;BME280;12240;51.142;22.486;2023-01-28T05:01:08;99791.81;;;-1.45;100.00
24031;BME280;12240;51.142;22.486;2023-01-28T05:03:37;99769.03;;;-1.61;100.00
24031;BME280;12240;51.142;22.486;2023-01-28T05:06:06;99747.91;;;-1.75;100.00
24031;BME280;12240;51.142;22.486;2023-01-28T05:08:45;99793.66;;;-1.47;100.00
24031;BME280;12240;51.142;22.486;2023-01-28T05:11:15;99773.38;;;-1.60;100.00
24031;BME280;12240;51.142;22.486;2023-01-28T05:13:45;99806.72;;;-1.47;100.00
24031;BME280;12240;51.142;22.486;2023-01-28T05:16:14;99765.00;;;-1.68;100.00
24031;BME280;12240;51.142;22.486;2023-01-28T05:18:42;99809.81;;;-1.39;100.00
24031;BME280;12240;51.142;22.486;2023-01-28T05:21:14;99759.50;;;-1.81;100.00
24031;BME280;12240;51.142;22.486;2023-01-28T05:23:43;99824.84;;;-1.44;100.00
24031;BME280;12240;51.142;22.486;2023-01-28T05:26:11;99776.50;;;-1.72;100.00
24031;BME280;12240;51.142;22.486;2023-01-28T05:28:40;99778.84;;;-1.66;100.00
24031;BME280;12240;51.142;22.486;2023-01-28T05:31:09;99826.19;;;-1.35;100.00
24031;BME280;12240;51.142;22.486;2023-01-28T05:33:38;99829.47;;;-1.30;100.00
24031;BME280;12240;51.142;22.486;2023-01-28T05:36:08;99734.44;;;-1.85;100.00
24031;BME280;12240;51.142;22.486;2023-01-28T05:38:38;99833.09;;;-1.34;100.00
24031;BME280;12240;51.142;22.486;2023-01-28T05:41:06;99801.72;;;-1.53;100.00
24031;BME280;12240;51.142;22.486;2023-01-28T05:43:35;99841.88;;;-1.35;100.00
24031;BME280;12240;51.142;22.486;2023-01-28T05:46:15;99842.88;;;-1.38;100.00
24031;BME280;12240;51.142;22.486;2023-01-28T05:49:03;99816.06;;;-1.43;100.00
24031;BME280;12240;51.142;22.486;2023-01-28T05:52:10;99861.38;;;-1.24;100.00
24031;BME280;12240;51.142;22.486;2023-01-28T05:54:38;99841.81;;;-1.34;100.00
24031;BME280;12240;51.142;22.486;2023-01-28T05:57:07;99876.00;;;-1.20;100.00
24031;BME280;12240;51.142;22.486;2023-01-28T05:59:35;99884.56;;;-1.16;100.00
24031;BME280;12240;51.142;22.486;2023-01-28T06:02:03;99820.66;;;-1.48;100.00
24031;BME280;12240;51.142;22.486;2023-01-28T06:04:33;99871.00;;;-1.24;100.00
24031;BME280;12240;51.142;22.486;2023-01-28T06:07:02;99828.38;;;-1.45;100.00
24031;BME280;12240;51.142;22.486;2023-01-28T06:09:30;99881.88;;;-1.14;100.00
24031;BME280;12240;51.142;22.486;2023-01-28T06:12:00;99885.44;;;-1.15;100.00
24031;BME280;12240;51.142;22.486;2023-01-28T06:14:31;99887.03;;;-1.13;100.00
24031;BME280;12240;51.142;22.486;2023-01-28T06:17:17;99895.03;;;-1.16;100.00
24031;BME280;12240;51.142;22.486;2023-01-28T06:20:02;99836.47;;;-1.51;100.00
24031;BME280;12240;51.142;22.486;2023-01-28T06:22:32;99887.50;;;-1.24;100.00
24031;BME280;12240;51.142;22.486;2023-01-28T06:25:00;99896.78;;;-1.17;100.00
24031;BME280;12240;51.142;22.486;2023-01-28T06:27:28;99901.03;;;-1.14;100.00
24031;BME280;12240;51.142;22.486;2023-01-28T06:29:56;99904.44;;;-1.12;100.00
24031;BME280;12240;51.142;22.486;2023-01-28T06:32:25;99841.75;;;-1.52;100.00
24031;BME280;12240;51.142;22.486;2023-01-28T06:34:54;99906.13;;;-1.11;100.00
24031;BME280;12240;51.142;22.486;2023-01-28T06:37:23;99909.53;;;-1.09;100.00
24031;BME280;12240;51.142;22.486;2023-01-28T06:39:52;99889.47;;;-1.29;100.00
24031;BME280;12240;51.142;22.486;2023-01-28T06:42:21;99913.09;;;-1.11;100.00
24031;BME280;12240;51.142;22.486;2023-01-28T06:44:49;99890.25;;;-1.27;100.00
24031;BME280;12240;51.142;22.486;2023-01-28T06:47:18;99908.22;;;-1.19;100.00
24031;BME280;12240;51.142;22.486;2023-01-28T06:49:46;99868.84;;;-1.35;100.00
24031;BME280;12240;51.142;22.486;2023-01-28T06:52:14;99884.00;;;-1.23;100.00
24031;BME280;12240;51.142;22.486;2023-01-28T06:54:43;99929.97;;;-0.98;100.00
24031;BME280;12240;51.142;22.486;2023-01-28T06:57:11;99884.09;;;-1.26;100.00
24031;BME280;12240;51.142;22.486;2023-01-28T06:59:39;99933.28;;;-0.95;100.00
24031;BME280;12240;51.142;22.486;2023-01-28T07:02:10;99931.72;;;-0.99;100.00
24031;BME280;12240;51.142;22.486;2023-01-28T07:04:38;99935.25;;;-1.00;100.00
24031;BME280;12240;51.142;22.486;2023-01-28T07:07:06;99821.34;;;-1.63;100.00
24031;BME280;12240;51.142;22.486;2023-01-28T07:09:35;99944.19;;;-0.85;100.00
24031;BME280;12240;51.142;22.486;2023-01-28T07:12:03;99940.69;;;-0.86;100.00
24031;BME280;12240;51.142;22.486;2023-01-28T07:14:32;99948.34;;;-0.81;100.00
24031;BME280;12240;51.142;22.486;2023-01-28T07:17:02;99938.16;;;-0.87;100.00
24031;BME280;12240;51.142;22.486;2023-01-28T07:19:31;99948.44;;;-0.83;100.00
24031;BME280;12240;51.142;22.486;2023-01-28T07:21:59;99949.06;;;-0.78;100.00
24031;BME280;12240;51.142;22.486;2023-01-28T07:24:30;99960.19;;;-0.73;100.00
24031;BME280;12240;51.142;22.486;2023-01-28T07:26:58;99969.63;;;-0.70;100.00
24031;BME280;12240;51.142;22.486;2023-01-28T07:29:26;99965.81;;;-0.63;100.00
24031;BME280;12240;51.142;22.486;2023-01-28T07:31:55;99971.06;;;-0.63;100.00
24031;BME280;12240;51.142;22.486;2023-01-28T07:34:23;99970.28;;;-0.65;100.00
24031;BME280;12240;51.142;22.486;2023-01-28T07:36:51;99914.38;;;-1.01;100.00
24031;BME280;12240;51.142;22.486;2023-01-28T07:39:20;99968.03;;;-0.73;100.00
24031;BME280;12240;51.142;22.486;2023-01-28T07:41:48;99950.84;;;-0.78;100.00
24031;BME280;12240;51.142;22.486;2023-01-28T07:44:32;99939.25;;;-0.73;100.00
24031;BME280;12240;51.142;22.486;2023-01-28T07:47:02;99979.78;;;-0.44;100.00
24031;BME280;12240;51.142;22.486;2023-01-28T07:49:32;99973.91;;;-0.49;100.00
24031;BME280;12240;51.142;22.486;2023-01-28T07:52:01;99976.44;;;-0.48;100.00
24031;BME280;12240;51.142;22.486;2023-01-28T07:54:29;99979.78;;;-0.44;100.00
24031;BME280;12240;51.142;22.486;2023-01-28T07:56:57;99869.53;;;-1.11;100.00
24031;BME280;12240;51.142;22.486;2023-01-28T07:59:26;99991.88;;;-0.42;100.00
24031;BME280;12240;51.142;22.486;2023-01-28T08:01:54;99934.94;;;-0.74;100.00
24031;BME280;12240;51.142;22.486;2023-01-28T08:04:24;99956.91;;;-0.78;100.00
24031;BME280;12240;51.142;22.486;2023-01-28T08:06:53;99993.56;;;-0.41;100.00
24031;BME280;12240;51.142;22.486;2023-01-28T08:09:22;99991.53;;;-0.34;100.00
24031;BME280;12240;51.142;22.486;2023-01-28T08:11:50;99997.34;;;-0.28;100.00
24031;BME280;12240;51.142;22.486;2023-01-28T08:14:18;99998.31;;;-0.30;100.00
24031;BME280;12240;51.142;22.486;2023-01-28T08:16:47;99937.06;;;-0.63;100.00
24031;BME280;12240;51.142;22.486;2023-01-28T08:19:15;100002.28;;;-0.22;100.00
24031;BME280;12240;51.142;22.486;2023-01-28T08:21:46;100008.09;;;-0.15;100.00
24031;BME280;12240;51.142;22.486;2023-01-28T08:24:16;99991.19;;;-0.27;100.00
24031;BME280;12240;51.142;22.486;2023-01-28T08:26:47;99960.69;;;-0.46;100.00
24031;BME280;12240;51.142;22.486;2023-01-28T08:29:15;100007.66;;;-0.25;100.00
24031;BME280;12240;51.142;22.486;2023-01-28T08:31:43;99997.28;;;-0.26;100.00
24031;BME280;12240;51.142;22.486;2023-01-28T08:34:12;100011.34;;;-0.10;100.00
24031;BME280;12240;51.142;22.486;2023-01-28T08:36:40;100008.66;;;-0.09;100.00
24031;BME280;12240;51.142;22.486;2023-01-28T08:39:08;99944.56;;;-0.37;100.00
24031;BME280;12240;51.142;22.486;2023-01-28T08:41:38;100004.13;;;-0.05;100.00
24031;BME280;12240;51.142;22.486;2023-01-28T08:44:07;100003.13;;;-0.03;100.00
24031;BME280;12240;51.142;22.486;2023-01-28T08:46:36;99992.66;;;-0.03;100.00
24031;BME280;12240;51.142;22.486;2023-01-28T08:49:06;100002.72;;;0.07;100.00
24031;BME280;12240;51.142;22.486;2023-01-28T08:51:34;100000.28;;;0.02;100.00
24031;BME280;12240;51.142;22.486;2023-01-28T08:54:03;100003.38;;;-0.07;100.00
24031;BME280;12240;51.142;22.486;2023-01-28T08:56:32;99956.94;;;-0.22;100.00
24031;BME280;12240;51.142;22.486;2023-01-28T08:59:00;99996.69;;;0.05;100.00
24031;BME280;12240;51.142;22.486;2023-01-28T09:01:28;100012.09;;;0.11;100.00
24031;BME280;12240;51.142;22.486;2023-01-28T09:03:56;100002.25;;;0.16;100.00
24031;BME280;12240;51.142;22.486;2023-01-28T09:06:24;99954.06;;;-0.16;100.00
24031;BME280;12240;51.142;22.486;2023-01-28T09:08:57;99977.66;;;0.01;100.00
24031;BME280;12240;51.142;22.486;2023-01-28T09:11:26;99948.91;;;-0.18;100.00
24031;BME280;12240;51.142;22.486;2023-01-28T09:13:57;99945.41;;;-0.18;100.00
24031;BME280;12240;51.142;22.486;2023-01-28T09:16:25;99999.88;;;0.11;100.00
24031;BME280;12240;51.142;22.486;2023-01-28T09:18:54;99949.38;;;-0.10;100.00
24031;BME280;12240;51.142;22.486;2023-01-28T09:21:23;100003.53;;;0.26;100.00
24031;BME280;12240;51.142;22.486;2023-01-28T09:23:51;100006.00;;;0.29;100.00
24031;BME280;12240;51.142;22.486;2023-01-28T09:26:19;99989.13;;;0.17;100.00
24031;BME280;12240;51.142;22.486;2023-01-28T09:28:48;99998.03;;;0.13;100.00
24031;BME280;12240;51.142;22.486;2023-01-28T09:31:17;99981.69;;;0.08;100.00
24031;BME280;12240;51.142;22.486;2023-01-28T09:33:46;100002.06;;;0.20;100.00
24031;BME280;12240;51.142;22.486;2023-01-28T09:36:16;99997.88;;;0.16;100.00
24031;BME280;12240;51.142;22.486;2023-01-28T09:38:44;99994.78;;;0.08;100.00
24031;BME280;12240;51.142;22.486;2023-01-28T09:41:51;99989.00;;;0.02;100.00
24031;BME280;12240;51.142;22.486;2023-01-28T09:44:54;99997.19;;;-0.06;100.00
24031;BME280;12240;51.142;22.486;2023-01-28T09:47:40;99988.72;;;-0.11;100.00
24031;BME280;12240;51.142;22.486;2023-01-28T09:50:37;99931.78;;;-0.43;100.00
24031;BME280;12240;51.142;22.486;2023-01-28T09:56:14;99948.25;;;-0.23;100.00
24031;BME280;12240;51.142;22.486;2023-01-28T09:58:43;99965.84;;;-0.08;100.00
24031;BME280;12240;51.142;22.486;2023-01-28T10:01:43;99999.94;;;0.10;100.00
24031;BME280;12240;51.142;22.486;2023-01-28T10:04:47;99973.28;;;0.02;100.00
24031;BME280;12240;51.142;22.486;2023-01-28T10:07:33;99989.41;;;0.11;100.00
24031;BME280;12240;51.142;22.486;2023-01-28T10:16:08;99942.09;;;-0.22;100.00
24031;BME280;12240;51.142;22.486;2023-01-28T10:19:02;99936.88;;;-0.22;100.00
24031;BME280;12240;51.142;22.486;2023-01-28T10:22:08;99992.94;;;0.10;100.00
24031;BME280;12240;51.142;22.486;2023-01-28T10:24:47;100004.31;;;0.09;100.00
24031;BME280;12240;51.142;22.486;2023-01-28T10:27:22;100000.81;;;0.10;100.00
24031;BME280;12240;51.142;22.486;2023-01-28T10:29:52;99944.31;;;-0.31;100.00
24031;BME280;12240;51.142;22.486;2023-01-28T10:32:33;99992.91;;;-0.07;100.00
24031;BME280;12240;51.142;22.486;2023-01-28T10:35:02;99989.97;;;-0.01;100.00
24031;BME280;12240;51.142;22.486;2023-01-28T10:37:34;99954.31;;;-0.22;100.00
24031;BME280;12240;51.142;22.486;2023-01-28T10:40:04;99973.94;;;-0.12;100.00
24031;BME280;12240;51.142;22.486;2023-01-28T10:42:40;99990.97;;;-0.04;100.00
24031;BME280;12240;51.142;22.486;2023-01-28T10:45:22;99978.66;;;-0.20;100.00
24031;BME280;12240;51.142;22.486;2023-01-28T10:48:20;99993.72;;;-0.07;100.00
24031;BME280;12240;51.142;22.486;2023-01-28T10:50:56;99982.91;;;-0.18;100.00
24031;BME280;12240;51.142;22.486;2023-01-28T10:53:40;99960.75;;;-0.29;100.00
24031;BME280;12240;51.142;22.486;2023-01-28T10:56:29;99985.53;;;-0.18;100.00
24031;BME280;12240;51.142;22.486;2023-01-28T10:59:27;99982.91;;;-0.18;100.00
24031;BME280;12240;51.142;22.486;2023-01-28T11:02:03;99993.16;;;-0.13;100.00
24031;BME280;12240;51.142;22.486;2023-01-28T11:04:34;99973.00;;;-0.30;100.00
24031;BME280;12240;51.142;22.486;2023-01-28T11:07:16;99984.69;;;-0.18;100.00
24031;BME280;12240;51.142;22.486;2023-01-28T11:09:49;99990.84;;;-0.19;100.00
24031;BME280;12240;51.142;22.486;2023-01-28T11:14:55;99926.25;;;-0.56;100.00
24031;BME280;12240;51.142;22.486;2023-01-28T11:17:28;99983.34;;;-0.27;100.00
24031;BME280;12240;51.142;22.486;2023-01-28T11:20:00;99950.66;;;-0.37;100.00
24031;BME280;12240;51.142;22.486;2023-01-28T11:22:41;99927.03;;;-0.54;100.00
24031;BME280;12240;51.142;22.486;2023-01-28T11:25:29;99983.47;;;-0.11;100.00
24031;BME280;12240;51.142;22.486;2023-01-28T11:28:04;99982.47;;;-0.09;100.00
24031;BME280;12240;51.142;22.486;2023-01-28T11:30:40;99982.00;;;-0.17;100.00
24031;BME280;12240;51.142;22.486;2023-01-28T11:36:32;99983.03;;;-0.21;100.00
24031;BME280;12240;51.142;22.486;2023-01-28T11:39:24;99968.41;;;-0.25;100.00
24031;BME280;12240;51.142;22.486;2023-01-28T11:42:17;99967.84;;;-0.31;100.00
24031;BME280;12240;51.142;22.486;2023-01-28T11:44:47;99945.28;;;-0.34;100.00
24031;BME280;12240;51.142;22.486;2023-01-28T11:47:33;99919.75;;;-0.47;100.00
24031;BME280;12240;51.142;22.486;2023-01-28T11:53:47;99907.97;;;-0.56;100.00
24031;BME280;12240;51.142;22.486;2023-01-28T11:57:25;99967.63;;;-0.27;100.00
24031;BME280;12240;51.142;22.486;2023-01-28T12:00:17;99973.72;;;-0.26;100.00
24031;BME280;12240;51.142;22.486;2023-01-28T12:02:54;99965.81;;;-0.25;100.00
24031;BME280;12240;51.142;22.486;2023-01-28T12:09:00;99911.13;;;-0.49;100.00
24031;BME280;12240;51.142;22.486;2023-01-28T12:12:02;99973.28;;;-0.17;100.00
24031;BME280;12240;51.142;22.486;2023-01-28T12:32:59;99968.81;;;0.03;100.00
24031;BME280;12240;51.142;22.486;2023-01-28T12:41:53;99967.28;;;-0.01;100.00
24031;BME280;12240;51.142;22.486;2023-01-28T12:44:34;99973.38;;;0.00;100.00
24031;BME280;12240;51.142;22.486;2023-01-28T12:47:11;99986.00;;;0.09;100.00
24031;BME280;12240;51.142;22.486;2023-01-28T12:50:10;99972.13;;;0.07;100.00
24031;BME280;12240;51.142;22.486;2023-01-28T12:53:02;99914.91;;;-0.36;100.00
24031;BME280;12240;51.142;22.486;2023-01-28T12:55:47;99976.84;;;0.18;100.00
24031;BME280;12240;51.142;22.486;2023-01-28T12:58:28;99960.53;;;0.13;100.00
24031;BME280;12240;51.142;22.486;2023-01-28T13:01:08;99965.84;;;-0.08;100.00
24031;BME280;12240;51.142;22.486;2023-01-28T13:03:54;99971.16;;;-0.09;100.00
24031;BME280;12240;51.142;22.486;2023-01-28T13:06:34;99971.88;;;-0.06;100.00
24031;BME280;12240;51.142;22.486;2023-01-28T13:09:25;99976.25;;;-0.06;100.00
24031;BME280;12240;51.142;22.486;2023-01-28T13:11:57;99954.94;;;-0.17;100.00
24031;BME280;12240;51.142;22.486;2023-01-28T13:14:31;99930.13;;;-0.27;100.00
24031;BME280;12240;51.142;22.486;2023-01-28T13:17:25;99931.63;;;-0.22;100.00
24031;BME280;12240;51.142;22.486;2023-01-28T13:19:54;99989.41;;;0.11;100.00
24031;BME280;12240;51.142;22.486;2023-01-28T13:22:35;99987.97;;;0.04;100.00
24031;BME280;12240;51.142;22.486;2023-01-28T13:25:24;99995.69;;;0.07;100.00
24031;BME280;12240;51.142;22.486;2023-01-28T13:28:05;100006.13;;;0.09;100.00
24031;BME280;12240;51.142;22.486;2023-01-28T13:30:48;99887.09;;;-0.57;100.00
24031;BME280;12240;51.142;22.486;2023-01-28T13:33:40;99977.19;;;-0.07;100.00
24031;BME280;12240;51.142;22.486;2023-01-28T13:38:46;99945.00;;;-0.28;100.00
24031;BME280;12240;51.142;22.486;2023-01-28T13:41:15;100006.38;;;0.03;100.00
24031;BME280;12240;51.142;22.486;2023-01-28T13:43:43;100005.34;;;0.07;100.00
24031;BME280;12240;51.142;22.486;2023-01-28T13:46:26;99940.13;;;-0.35;100.00
24031;BME280;12240;51.142;22.486;2023-01-28T13:48:57;100002.19;;;-0.02;100.00
24031;BME280;12240;51.142;22.486;2023-01-28T13:51:31;100010.03;;;0.00;100.00
24031;BME280;12240;51.142;22.486;2023-01-28T13:54:16;100011.69;;;0.01;100.00
24031;BME280;12240;51.142;22.486;2023-01-28T14:11:48;100023.59;;;-0.11;100.00
24031;BME280;12240;51.142;22.486;2023-01-28T14:14:46;100007.66;;;-0.25;100.00
24031;BME280;12240;51.142;22.486;2023-01-28T14:17:52;99998.06;;;-0.24;100.00
24031;BME280;12240;51.142;22.486;2023-01-28T14:23:18;100011.06;;;-0.23;100.00
24031;BME280;12240;51.142;22.486;2023-01-28T14:31:35;100010.69;;;-0.15;100.00
24031;BME280;12240;51.142;22.486;2023-01-28T14:34:32;99987.63;;;-0.26;100.00
24031;BME280;12240;51.142;22.486;2023-01-28T14:37:08;99979.03;;;-0.28;100.00
24031;BME280;12240;51.142;22.486;2023-01-28T14:39:51;99952.72;;;-0.43;100.00
24031;BME280;12240;51.142;22.486;2023-01-28T14:42:30;100019.13;;;-0.09;100.00
24031;BME280;12240;51.142;22.486;2023-01-28T14:53:48;100016.50;;;-0.09;100.00
24031;BME280;12240;51.142;22.486;2023-01-28T14:57:10;100018.44;;;-0.12;100.00
24031;BME280;12240;51.142;22.486;2023-01-28T15:02:30;100019.34;;;-0.13;100.00
24031;BME280;12240;51.142;22.486;2023-01-28T15:05:14;99959.00;;;-0.47;100.00
24031;BME280;12240;51.142;22.486;2023-01-28T15:07:45;99966.50;;;-0.40;100.00
24031;BME280;12240;51.142;22.486;2023-01-28T15:10:23;100025.28;;;-0.10;100.00
24031;BME280;12240;51.142;22.486;2023-01-28T15:13:07;100014.72;;;-0.08;100.00
24031;BME280;12240;51.142;22.486;2023-01-28T15:15:39;100019.25;;;-0.12;100.00
24031;BME280;12240;51.142;22.486;2023-01-28T15:18:29;100021.81;;;-0.10;100.00
24031;BME280;12240;51.142;22.486;2023-01-28T15:20:58;100019.25;;;-0.12;100.00